createdAt,value
2023-04-01T00:00:38.978Z,3.77
2023-04-01T00:03:08.096Z,3.77
2023-04-01T00:05:36.354Z,5.10
2023-04-01T00:08:04.515Z,1.80
2023-04-01T00:10:34.060Z,5.17
2023-04-01T00:13:03.065Z,4.40
2023-04-01T00:15:31.537Z,2.20
2023-04-01T00:18:00.001Z,5.80
2023-04-01T00:20:28.516Z,3.63
2023-04-01T00:22:57.049Z,4.90
2023-04-01T00:25:25.778Z,3.13
2023-04-01T00:27:55.332Z,5.30
2023-04-01T00:30:23.515Z,3.73
2023-04-01T00:32:54.330Z,3.77
2023-04-01T00:35:23.347Z,2.83
2023-04-01T00:37:51.787Z,4.10
2023-04-01T00:40:26.065Z,2.63
2023-04-01T00:42:55.779Z,2.53
2023-04-01T00:45:34.943Z,4.37
2023-04-01T00:48:04.776Z,1.77
2023-04-01T00:50:33.534Z,4.20
2023-04-01T00:53:02.764Z,2.30
2023-04-01T00:55:32.456Z,1.73
2023-04-01T00:58:02.589Z,2.77
2023-04-01T01:00:30.938Z,2.00
2023-04-01T01:02:59.162Z,1.67
2023-04-01T01:05:34.366Z,2.70
2023-04-01T01:08:11.544Z,3.50
2023-04-01T01:10:40.769Z,2.70
2023-04-01T01:13:14.197Z,3.23
2023-04-01T01:15:48.128Z,1.70
2023-04-01T01:18:22.476Z,2.07
2023-04-01T01:21:04.287Z,2.80
2023-04-01T01:23:43.491Z,2.37
2023-04-01T01:26:18.386Z,2.37
2023-04-01T01:28:54.402Z,3.03
2023-04-01T01:31:25.979Z,2.40
2023-04-01T01:34:00.448Z,2.70
2023-04-01T01:36:35.457Z,3.03
2023-04-01T01:39:04.063Z,1.40
2023-04-01T01:41:33.124Z,2.03
2023-04-01T01:44:02.605Z,1.07
2023-04-01T01:46:31.549Z,1.87
2023-04-01T01:49:00.698Z,3.00
2023-04-01T01:51:30.394Z,2.07
2023-04-01T01:53:58.557Z,0.90
2023-04-01T01:56:28.603Z,2.30
2023-04-01T01:58:59.343Z,0.97
2023-04-01T02:01:28.778Z,1.27
2023-04-01T02:03:57.716Z,0.57
2023-04-01T02:06:28.158Z,0.83
2023-04-01T02:08:59.068Z,0.93
2023-04-01T02:11:28.613Z,0.77
2023-04-01T02:13:59.213Z,1.67
2023-04-01T02:16:31.493Z,1.13
2023-04-01T02:19:00.781Z,2.60
2023-04-01T02:21:31.098Z,1.23
2023-04-01T02:24:01.610Z,1.37
2023-04-01T02:26:30.039Z,3.20
2023-04-01T02:28:59.134Z,1.80
2023-04-01T02:31:27.930Z,1.87
2023-04-01T02:33:56.259Z,3.13
2023-04-01T02:36:24.450Z,0.77
2023-04-01T02:38:53.470Z,2.97
2023-04-01T02:41:23.024Z,1.00
2023-04-01T02:43:51.473Z,1.50
2023-04-01T02:46:19.822Z,3.57
2023-04-01T02:48:48.121Z,1.37
2023-04-01T02:51:18.275Z,2.30
2023-04-01T02:53:46.356Z,3.03
2023-04-01T02:56:14.218Z,1.73
2023-04-01T02:58:43.399Z,1.67
2023-04-01T03:01:11.262Z,0.73
2023-04-01T03:03:40.288Z,1.17
2023-04-01T03:06:08.641Z,1.13
2023-04-01T03:08:36.576Z,1.90
2023-04-01T03:11:04.694Z,0.83
2023-04-01T03:13:32.587Z,0.77
2023-04-01T03:16:02.830Z,1.00
2023-04-01T03:18:30.916Z,0.70
2023-04-01T03:20:58.762Z,0.53
2023-04-01T03:23:26.594Z,0.60
2023-04-01T03:25:54.442Z,1.30
2023-04-01T03:28:22.264Z,0.83
2023-04-01T03:30:50.124Z,0.60
2023-04-01T03:33:19.436Z,0.83
2023-04-01T03:35:47.289Z,0.80
2023-04-01T03:38:16.468Z,1.27
2023-04-01T03:40:44.883Z,3.27
2023-04-01T03:43:13.145Z,0.63
2023-04-01T03:45:46.290Z,1.90
2023-04-01T03:48:14.104Z,0.50
2023-04-01T03:50:43.393Z,0.80
2023-04-01T03:53:11.561Z,0.50
2023-04-01T03:55:39.780Z,1.77
2023-04-01T03:58:08.928Z,2.80
2023-04-01T04:00:36.948Z,0.43
2023-04-01T04:03:05.491Z,2.20
2023-04-01T04:05:33.971Z,0.60
2023-04-01T04:08:03.857Z,1.53
2023-04-01T04:10:31.719Z,0.70
2023-04-01T04:12:59.534Z,0.50
2023-04-01T04:15:27.419Z,0.53
2023-04-01T04:17:55.259Z,1.13
2023-04-01T04:20:23.181Z,1.07
2023-04-01T04:22:51.052Z,0.83
2023-04-01T04:25:20.298Z,0.83
2023-04-01T04:27:48.154Z,1.00
2023-04-01T04:30:16.290Z,0.80
2023-04-01T04:32:44.174Z,0.80
2023-04-01T04:35:12.050Z,1.00
2023-04-01T04:37:39.914Z,2.03
2023-04-01T04:40:09.488Z,1.83
2023-04-01T04:42:38.656Z,1.30
2023-04-01T04:45:07.490Z,1.43
2023-04-01T04:47:35.388Z,1.93
2023-04-01T04:50:03.236Z,2.13
2023-04-01T04:52:31.049Z,1.97
2023-04-01T04:54:58.885Z,1.63
2023-04-01T04:57:26.746Z,1.60
2023-04-01T04:59:55.956Z,1.73
2023-04-01T05:02:23.942Z,1.40
2023-04-01T05:04:51.887Z,2.57
2023-04-01T05:07:19.742Z,2.37
2023-04-01T05:09:47.916Z,1.63
2023-04-01T05:12:15.851Z,4.10
2023-04-01T05:14:43.660Z,2.33
2023-04-01T05:17:14.257Z,1.83
2023-04-01T05:19:42.291Z,2.50
2023-04-01T05:22:10.239Z,3.67
2023-04-01T05:24:38.161Z,2.83
2023-04-01T05:27:05.957Z,3.73
2023-04-01T05:29:34.491Z,4.67
2023-04-01T05:32:02.675Z,5.17
2023-04-01T05:34:32.201Z,4.33
2023-04-01T05:37:00.428Z,5.47
2023-04-01T05:39:28.614Z,5.83
2023-04-01T05:41:56.791Z,4.00
2023-04-01T05:44:24.972Z,4.80
2023-04-01T05:46:53.116Z,5.07
2023-04-01T05:49:20.984Z,4.90
2023-04-01T05:51:50.194Z,3.80
2023-04-01T05:54:18.049Z,3.77
2023-04-01T05:56:47.612Z,5.63
2023-04-01T05:59:16.792Z,4.80
2023-04-01T06:01:44.874Z,5.13
2023-04-01T06:04:17.014Z,5.07
2023-04-01T06:06:45.388Z,7.07
2023-04-01T06:09:17.599Z,6.37
2023-04-01T06:12:01.983Z,3.83
2023-04-01T06:14:40.550Z,7.53
2023-04-01T06:17:23.016Z,4.33
2023-04-01T06:19:57.465Z,4.13
2023-04-01T06:23:04.280Z,3.93
2023-04-01T06:25:49.896Z,6.60
2023-04-01T06:28:59.934Z,3.07
2023-04-01T06:31:46.270Z,4.20
2023-04-01T06:34:39.908Z,3.63
2023-04-01T06:37:26.776Z,3.80
2023-04-01T06:40:07.829Z,4.07
2023-04-01T06:42:54.930Z,3.77
2023-04-01T06:45:34.116Z,3.63
2023-04-01T06:48:25.522Z,2.90
2023-04-01T06:51:04.434Z,2.63
2023-04-01T06:53:40.808Z,3.93
2023-04-01T06:56:11.947Z,1.70
2023-04-01T06:58:46.018Z,4.30
2023-04-01T07:01:26.025Z,2.60
2023-04-01T07:03:58.787Z,2.30
2023-04-01T07:06:31.996Z,2.00
2023-04-01T07:09:06.057Z,3.00
2023-04-01T07:11:36.731Z,1.93
2023-04-01T07:14:12.440Z,1.73
2023-04-01T07:16:44.941Z,1.70
2023-04-01T07:19:18.620Z,1.70
2023-04-01T07:21:49.992Z,1.50
2023-04-01T07:24:22.838Z,1.70
2023-04-01T07:26:54.297Z,2.13
2023-04-01T07:29:23.866Z,8.60
2023-04-01T07:32:05.952Z,3.40
2023-04-01T07:34:41.768Z,1.93
2023-04-01T07:37:14.281Z,2.00
2023-04-01T07:39:53.629Z,1.50
2023-04-01T07:42:34.278Z,2.10
2023-04-01T07:45:10.704Z,1.33
2023-04-01T07:47:50.473Z,1.37
2023-04-01T07:50:27.703Z,1.60
2023-04-01T07:53:07.772Z,1.50
2023-04-01T07:55:42.012Z,1.33
2023-04-01T07:58:19.441Z,1.40
2023-04-01T08:00:55.326Z,1.57
2023-04-01T08:03:35.494Z,2.97
2023-04-01T08:06:12.699Z,1.67
2023-04-01T08:08:53.921Z,2.20
2023-04-01T08:11:33.835Z,1.00
2023-04-01T08:14:11.332Z,1.03
2023-04-01T08:16:48.766Z,1.00
2023-04-01T08:19:29.792Z,1.00
2023-04-01T08:22:00.183Z,1.00
2023-04-01T08:24:46.526Z,0.97
2023-04-01T08:27:23.517Z,0.83
2023-04-01T08:29:55.373Z,1.10
2023-04-01T08:32:30.178Z,1.07
2023-04-01T08:35:09.013Z,1.43
2023-04-01T08:37:42.152Z,1.27
2023-04-01T08:40:45.853Z,1.67
2023-04-01T08:43:24.714Z,1.33
2023-04-01T08:46:15.336Z,1.40
2023-04-01T08:48:56.691Z,1.30
2023-04-01T08:51:45.471Z,1.30
2023-04-01T08:54:47.141Z,1.10
2023-04-01T08:57:23.848Z,1.57
2023-04-01T08:59:59.399Z,1.20
2023-04-01T09:02:59.105Z,1.30
2023-04-01T09:06:03.612Z,2.47
2023-04-01T09:08:45.317Z,3.23
2023-04-01T09:11:29.681Z,1.40
2023-04-01T09:14:25.270Z,1.90
2023-04-01T09:17:08.033Z,1.77
2023-04-01T09:19:43.120Z,1.90
2023-04-01T09:22:32.267Z,1.43
2023-04-01T09:25:22.862Z,2.03
2023-04-01T09:27:57.245Z,3.10
2023-04-01T09:30:35.956Z,1.63
2023-04-01T09:33:26.307Z,2.70
2023-04-01T09:36:02.077Z,1.13
2023-04-01T09:38:31.949Z,1.90
2023-04-01T09:41:06.050Z,1.70
2023-04-01T09:43:41.651Z,1.37
2023-04-01T09:46:27.554Z,1.20
2023-04-01T09:49:20.089Z,1.03
2023-04-01T09:51:55.583Z,1.47
2023-04-01T09:54:33.161Z,1.40
2023-04-01T09:57:17.999Z,2.10
2023-04-01T09:59:52.252Z,1.60
2023-04-01T10:02:44.909Z,1.67
2023-04-01T10:05:31.680Z,1.00
2023-04-01T10:08:17.057Z,0.90
2023-04-01T10:11:03.690Z,1.20
2023-04-01T10:13:46.919Z,1.03
2023-04-01T10:16:34.665Z,1.10
2023-04-01T10:19:23.548Z,0.90
2023-04-01T10:22:15.967Z,0.77
2023-04-01T10:24:59.003Z,0.80
2023-04-01T10:27:37.168Z,1.80
2023-04-01T10:30:29.983Z,1.00
2023-04-01T10:33:16.563Z,1.07
2023-04-01T10:36:08.339Z,0.80
2023-04-01T10:38:46.512Z,1.37
2023-04-01T10:41:32.659Z,0.70
2023-04-01T10:44:21.890Z,0.90
2023-04-01T10:47:10.996Z,1.00
2023-04-01T10:49:49.314Z,2.10
2023-04-01T10:52:42.611Z,0.97
2023-04-01T10:55:21.794Z,1.00
2023-04-01T10:58:14.053Z,1.40
2023-04-01T11:01:05.518Z,1.27
2023-04-01T11:04:00.989Z,1.10
2023-04-01T11:06:40.204Z,1.00
2023-04-01T11:09:28.702Z,0.80
2023-04-01T11:12:18.596Z,1.00
2023-04-01T11:15:00.473Z,0.67
2023-04-01T11:17:54.142Z,0.70
2023-04-01T11:20:36.300Z,1.60
2023-04-01T11:23:19.010Z,0.70
2023-04-01T11:26:05.662Z,1.10
2023-04-01T11:28:51.738Z,0.70
2023-04-01T11:31:26.549Z,1.17
2023-04-01T11:33:57.661Z,0.83
2023-04-01T11:36:32.501Z,0.70
2023-04-01T11:39:05.730Z,0.80
2023-04-01T11:41:39.916Z,1.13
2023-04-01T11:44:19.867Z,1.90
2023-04-01T11:47:05.650Z,1.03
2023-04-01T11:49:44.537Z,1.20
2023-04-01T11:52:18.470Z,1.30
2023-04-01T11:54:55.982Z,1.40
2023-04-01T11:57:38.509Z,1.00
2023-04-01T12:00:26.822Z,1.00
2023-04-01T12:03:04.793Z,1.00
2023-04-01T12:05:40.648Z,1.13
2023-04-01T12:08:32.811Z,1.13
2023-04-01T12:11:05.479Z,1.30
2023-04-01T12:13:37.956Z,0.80
2023-04-01T12:16:18.385Z,1.27
2023-04-01T12:18:51.109Z,1.10
2023-04-01T12:21:25.480Z,1.30
2023-04-01T12:24:01.377Z,1.03
2023-04-01T12:26:38.425Z,1.20
2023-04-01T12:29:11.541Z,0.83
2023-04-01T12:31:45.211Z,1.53
2023-04-01T12:34:41.482Z,1.10
2023-04-01T12:37:15.711Z,1.40
2023-04-01T12:39:53.202Z,1.63
2023-04-01T12:42:31.348Z,1.73
2023-04-01T12:45:05.064Z,1.70
2023-04-01T12:47:51.024Z,1.47
2023-04-01T12:50:25.286Z,1.63
2023-04-01T12:53:04.204Z,1.50
2023-04-01T12:55:38.231Z,1.60
2023-04-01T12:58:11.936Z,1.57
2023-04-01T13:00:48.909Z,1.77
2023-04-01T13:03:25.585Z,2.13
2023-04-01T13:06:07.093Z,1.70
2023-04-01T13:08:42.625Z,1.30
2023-04-01T13:11:17.550Z,2.50
2023-04-01T13:13:53.364Z,4.33
2023-04-01T13:16:23.676Z,1.33
2023-04-01T13:18:57.012Z,1.27
2023-04-01T13:21:28.646Z,1.30
2023-04-01T13:24:04.307Z,1.83
2023-04-01T13:26:37.177Z,1.30
2023-04-01T13:29:08.871Z,1.30
2023-04-01T13:31:47.045Z,1.10
2023-04-01T13:34:20.442Z,1.53
2023-04-01T13:36:53.011Z,1.23
2023-04-01T13:39:30.285Z,1.47
2023-04-01T13:42:05.940Z,1.30
2023-04-01T13:44:37.915Z,1.63
2023-04-01T13:47:11.100Z,1.47
2023-04-01T13:49:55.084Z,1.30
2023-04-01T13:52:30.052Z,2.50
2023-04-01T13:55:14.002Z,1.77
2023-04-01T13:57:53.591Z,1.20
2023-04-01T14:00:35.642Z,1.37
2023-04-01T14:03:18.703Z,1.50
2023-04-01T14:05:53.253Z,1.10
2023-04-01T14:08:29.099Z,1.30
2023-04-01T14:11:04.830Z,2.80
2023-04-01T14:13:37.374Z,1.10
2023-04-01T14:16:23.609Z,1.47
2023-04-01T14:19:09.709Z,1.03
2023-04-01T14:21:40.895Z,1.40
2023-04-01T14:24:20.922Z,1.27
2023-04-01T14:27:03.560Z,1.10
2023-04-01T14:29:35.657Z,1.10
2023-04-01T14:32:14.690Z,1.00
2023-04-01T14:34:51.153Z,1.03
2023-04-01T14:37:25.838Z,1.33
2023-04-01T14:40:08.112Z,1.70
2023-04-01T14:42:48.038Z,0.80
2023-04-01T14:45:37.255Z,1.23
2023-04-01T14:48:16.420Z,0.90
2023-04-01T14:50:45.732Z,0.80
2023-04-01T14:53:16.050Z,0.93
2023-04-01T14:55:50.869Z,1.10
2023-04-01T14:58:22.726Z,0.70
2023-04-01T15:00:53.247Z,0.90
2023-04-01T15:03:27.824Z,0.87
2023-04-01T15:05:58.881Z,0.80
2023-04-01T15:08:28.750Z,1.10
2023-04-01T15:11:11.798Z,1.57
2023-04-01T15:13:51.490Z,2.63
2023-04-01T15:16:24.633Z,1.33
2023-04-01T15:18:57.200Z,1.03
2023-04-01T15:21:34.976Z,1.43
2023-04-01T15:24:09.760Z,1.47
2023-04-01T15:26:50.261Z,1.10
2023-04-01T15:29:36.165Z,1.40
2023-04-01T15:32:11.468Z,1.80
2023-04-01T15:34:45.176Z,1.10
2023-04-01T15:37:17.375Z,1.47
2023-04-01T15:39:51.692Z,1.30
2023-04-01T15:42:24.574Z,1.10
2023-04-01T15:45:08.718Z,1.27
2023-04-01T15:47:40.610Z,1.30
2023-04-01T15:50:28.884Z,2.20
2023-04-01T15:53:02.230Z,1.37
2023-04-01T15:55:34.310Z,2.77
2023-04-01T15:58:09.283Z,1.50
2023-04-01T16:00:46.448Z,1.50
2023-04-01T16:03:26.189Z,12.07
2023-04-01T16:06:01.336Z,1.50
2023-04-01T16:08:41.378Z,1.67
2023-04-01T16:11:15.936Z,2.93
2023-04-01T16:13:49.127Z,1.60
2023-04-01T16:16:25.472Z,1.57
2023-04-01T16:19:16.507Z,1.70
2023-04-01T16:21:48.164Z,2.03
2023-04-01T16:24:18.649Z,2.57
2023-04-01T16:26:50.738Z,1.53
2023-04-01T16:29:24.163Z,1.80
2023-04-01T16:31:55.767Z,2.37
2023-04-01T16:34:30.106Z,1.70
2023-04-01T16:37:01.571Z,1.80
2023-04-01T16:39:32.729Z,1.60
2023-04-01T16:42:13.466Z,1.90
2023-04-01T16:44:49.587Z,2.20
2023-04-01T16:47:19.877Z,2.03
2023-04-01T16:49:51.609Z,2.13
2023-04-01T16:52:32.284Z,2.40
2023-04-01T16:55:02.368Z,2.47
2023-04-01T16:57:33.897Z,2.37
2023-04-01T17:00:05.314Z,2.40
2023-04-01T17:02:36.539Z,2.67
2023-04-01T17:05:08.328Z,2.83
2023-04-01T17:07:44.018Z,2.40
2023-04-01T17:10:26.815Z,3.20
2023-04-01T17:13:01.508Z,4.27
2023-04-01T17:15:33.062Z,2.50
2023-04-01T17:18:03.926Z,3.63
2023-04-01T17:20:38.883Z,2.90
2023-04-01T17:23:14.732Z,3.60
2023-04-01T17:25:51.553Z,4.70
2023-04-01T17:28:28.856Z,4.53
2023-04-01T17:31:02.907Z,3.20
2023-04-01T17:33:51.786Z,3.53
2023-04-01T17:36:28.361Z,2.60
2023-04-01T17:39:04.578Z,2.80
2023-04-01T17:41:35.854Z,2.17
2023-04-01T17:44:08.112Z,4.73
2023-04-01T17:46:40.586Z,2.70
2023-04-01T17:49:20.726Z,4.50
2023-04-01T17:51:56.321Z,3.40
2023-04-01T17:54:30.616Z,2.80
2023-04-01T17:57:08.964Z,2.80
2023-04-01T17:59:40.144Z,2.17
2023-04-01T18:02:16.568Z,2.87
2023-04-01T18:04:54.774Z,1.90
2023-04-01T18:07:37.825Z,2.33
2023-04-01T18:10:14.705Z,2.00
2023-04-01T18:12:47.158Z,3.63
2023-04-01T18:15:21.121Z,2.60
2023-04-01T18:17:58.043Z,2.20
2023-04-01T18:20:32.914Z,2.30
2023-04-01T18:23:03.617Z,2.20
2023-04-01T18:25:37.881Z,2.17
2023-04-01T18:28:19.371Z,2.00
2023-04-01T18:30:53.243Z,2.27
2023-04-01T18:33:24.762Z,2.20
2023-04-01T18:35:54.408Z,2.10
2023-04-01T18:38:30.271Z,1.80
2023-04-01T18:41:05.191Z,2.00
2023-04-01T18:43:38.901Z,2.23
2023-04-01T18:46:11.122Z,1.67
2023-04-01T18:48:46.406Z,2.20
2023-04-01T18:51:17.411Z,1.73
2023-04-01T18:53:48.759Z,2.20
2023-04-01T18:56:26.221Z,3.20
2023-04-01T18:58:58.020Z,1.80
2023-04-01T19:01:29.083Z,1.77
2023-04-01T19:04:04.418Z,2.10
2023-04-01T19:06:34.921Z,1.83
2023-04-01T19:09:12.887Z,2.80
2023-04-01T19:11:50.639Z,2.30
2023-04-01T19:14:21.597Z,2.43
2023-04-01T19:16:55.350Z,2.13
2023-04-01T19:19:27.362Z,2.43
2023-04-01T19:21:57.525Z,4.03
2023-04-01T19:24:43.303Z,2.70
2023-04-01T19:27:17.954Z,2.43
2023-04-01T19:29:52.628Z,2.97
2023-04-01T19:32:25.743Z,2.77
2023-04-01T19:34:57.446Z,2.60
2023-04-01T19:37:31.615Z,3.40
2023-04-01T19:40:04.738Z,3.00
2023-04-01T19:42:37.516Z,5.70
2023-04-01T19:45:11.101Z,5.23
2023-04-01T19:47:46.303Z,2.83
2023-04-01T19:50:23.084Z,2.80
2023-04-01T19:52:52.229Z,2.83
2023-04-01T19:55:27.020Z,4.83
2023-04-01T19:58:01.690Z,3.40
2023-04-01T20:00:33.783Z,3.40
2023-04-01T20:03:06.011Z,4.53
2023-04-01T20:05:42.476Z,3.07
2023-04-01T20:08:15.278Z,3.30
2023-04-01T20:10:46.405Z,3.70
2023-04-01T20:13:22.052Z,2.53
2023-04-01T20:15:57.800Z,3.77
2023-04-01T20:18:29.168Z,3.40
2023-04-01T20:20:58.980Z,3.00
2023-04-01T20:23:36.564Z,3.10
2023-04-01T20:26:07.064Z,2.73
2023-04-01T20:28:40.829Z,4.33
2023-04-01T20:31:27.070Z,3.07
2023-04-01T20:34:10.251Z,3.00
2023-04-01T20:36:44.560Z,3.37
2023-04-01T20:39:37.400Z,2.83
2023-04-01T20:42:19.353Z,2.43
2023-04-01T20:44:51.821Z,3.07
2023-04-01T20:47:23.268Z,2.90
2023-04-01T20:50:00.134Z,2.70
2023-04-01T20:52:32.266Z,3.73
2023-04-01T20:55:19.185Z,3.10
2023-04-01T20:57:51.695Z,3.47
2023-04-01T21:00:31.126Z,3.90
2023-04-01T21:03:08.859Z,4.90
2023-04-01T21:05:57.960Z,4.30
2023-04-01T21:08:29.161Z,3.47
2023-04-01T21:11:03.051Z,3.43
2023-04-01T21:13:38.053Z,3.30
2023-04-01T21:16:16.656Z,3.30
2023-04-01T21:18:59.679Z,3.13
2023-04-01T21:21:46.578Z,2.77
2023-04-01T21:24:41.741Z,2.87
2023-04-01T21:27:13.503Z,3.40
2023-04-01T21:29:45.959Z,3.23
2023-04-01T21:32:29.142Z,3.43
2023-04-01T21:35:00.271Z,4.03
2023-04-01T21:37:36.054Z,3.77
2023-04-01T21:40:12.152Z,4.03
2023-04-01T21:42:44.904Z,6.13
2023-04-01T21:45:17.404Z,3.70
2023-04-01T21:47:59.267Z,4.40
2023-04-01T21:50:42.458Z,4.57
2023-04-01T21:53:29.441Z,4.33
2023-04-01T21:56:09.520Z,4.10
2023-04-01T21:58:49.527Z,4.13
2023-04-01T22:01:25.168Z,4.13
2023-04-01T22:04:13.433Z,4.60
2023-04-01T22:06:44.523Z,3.87
2023-04-01T22:09:14.293Z,3.33
2023-04-01T22:11:50.419Z,5.03
2023-04-01T22:14:21.182Z,5.07
2023-04-01T22:16:52.083Z,4.97
2023-04-01T22:19:23.316Z,6.53
2023-04-01T22:22:02.027Z,6.17
2023-04-01T22:24:35.404Z,5.87
2023-04-01T22:27:07.318Z,8.03
2023-04-01T22:29:43.122Z,6.57
2023-04-01T22:32:17.383Z,6.33
2023-04-01T22:34:49.592Z,6.70
2023-04-01T22:37:20.789Z,7.10
2023-04-01T22:39:57.297Z,7.33
2023-04-01T22:42:36.559Z,6.43
2023-04-01T22:45:08.814Z,6.17
2023-04-01T22:47:41.810Z,5.73
2023-04-01T22:50:14.512Z,4.53
2023-04-01T22:52:45.134Z,3.37
2023-04-01T22:55:15.126Z,3.37
2023-04-01T22:57:46.052Z,3.47
2023-04-01T23:00:16.195Z,5.27
2023-04-01T23:02:46.488Z,6.27
2023-04-01T23:05:18.068Z,7.77
2023-04-01T23:07:50.063Z,10.53
2023-04-01T23:10:21.700Z,10.60
2023-04-01T23:12:50.538Z,12.40
2023-04-01T23:15:18.998Z,9.93
2023-04-01T23:17:53.616Z,14.07
2023-04-01T23:20:30.384Z,12.20
2023-04-01T23:23:11.187Z,14.10
2023-04-01T23:25:46.196Z,14.30
2023-04-01T23:28:22.322Z,16.23
2023-04-01T23:30:54.240Z,15.03
2023-04-01T23:33:24.338Z,15.63
2023-04-01T23:35:54.878Z,12.50
2023-04-01T23:38:24.001Z,10.90
2023-04-01T23:40:53.285Z,9.03
2023-04-01T23:43:25.151Z,6.47
2023-04-01T23:45:53.445Z,7.57
2023-04-01T23:48:22.872Z,6.80
2023-04-01T23:50:51.098Z,6.97
2023-04-01T23:53:21.743Z,7.97
2023-04-01T23:55:49.966Z,6.30
2023-04-01T23:58:20.120Z,7.03
